sensor_id;sensor_type;location;lat;lon;timestamp;P1;durP1;ratioP1;P2;durP2;ratioP2
57824;SDS011;43912;44.188;21.094;2022-08-01T00:01:35;10.02;;;3.97;;
57824;SDS011;43912;44.188;21.094;2022-08-01T00:04:01;10.20;;;3.83;;
57824;SDS011;43912;44.188;21.094;2022-08-01T00:06:27;10.48;;;3.55;;
57824;SDS011;43912;44.188;21.094;2022-08-01T00:08:54;9.55;;;4.22;;
57824;SDS011;43912;44.188;21.094;2022-08-01T00:11:20;10.25;;;3.70;;
57824;SDS011;43912;44.188;21.094;2022-08-01T00:13:46;7.85;;;3.47;;
57824;SDS011;43912;44.188;21.094;2022-08-01T00:16:12;9.57;;;3.63;;
57824;SDS011;43912;44.188;21.094;2022-08-01T00:18:38;8.00;;;3.47;;
57824;SDS011;43912;44.188;21.094;2022-08-01T00:21:05;8.15;;;3.42;;
57824;SDS011;43912;44.188;21.094;2022-08-01T00:23:31;7.65;;;3.47;;
57824;SDS011;43912;44.188;21.094;2022-08-01T00:25:57;8.57;;;3.72;;
57824;SDS011;43912;44.188;21.094;2022-08-01T00:28:23;9.07;;;3.83;;
57824;SDS011;43912;44.188;21.094;2022-08-01T00:30:49;10.98;;;3.40;;
57824;SDS011;43912;44.188;21.094;2022-08-01T00:33:15;10.25;;;3.85;;
57824;SDS011;43912;44.188;21.094;2022-08-01T00:35:41;7.32;;;2.92;;
57824;SDS011;43912;44.188;21.094;2022-08-01T00:38:07;9.80;;;3.22;;
57824;SDS011;43912;44.188;21.094;2022-08-01T00:40:34;7.97;;;2.75;;
57824;SDS011;43912;44.188;21.094;2022-08-01T00:43:00;8.20;;;2.75;;
57824;SDS011;43912;44.188;21.094;2022-08-01T00:45:26;7.70;;;2.65;;
57824;SDS011;43912;44.188;21.094;2022-08-01T00:47:52;8.95;;;3.22;;
57824;SDS011;43912;44.188;21.094;2022-08-01T00:50:18;8.63;;;2.92;;
57824;SDS011;43912;44.188;21.094;2022-08-01T00:52:44;7.97;;;2.92;;
57824;SDS011;43912;44.188;21.094;2022-08-01T00:55:11;8.10;;;3.25;;
57824;SDS011;43912;44.188;21.094;2022-08-01T00:57:38;9.90;;;3.33;;
57824;SDS011;43912;44.188;21.094;2022-08-01T01:00:05;8.02;;;3.10;;
57824;SDS011;43912;44.188;21.094;2022-08-01T01:02:32;7.85;;;3.10;;
57824;SDS011;43912;44.188;21.094;2022-08-01T01:04:59;7.30;;;3.25;;
57824;SDS011;43912;44.188;21.094;2022-08-01T01:09:56;8.98;;;3.00;;
57824;SDS011;43912;44.188;21.094;2022-08-01T01:12:33;9.83;;;2.87;;
57824;SDS011;43912;44.188;21.094;2022-08-01T01:18:09;7.03;;;3.20;;
57824;SDS011;43912;44.188;21.094;2022-08-01T01:20:44;8.75;;;3.33;;
57824;SDS011;43912;44.188;21.094;2022-08-01T01:25:51;7.00;;;3.25;;
57824;SDS011;43912;44.188;21.094;2022-08-01T01:30:46;8.45;;;3.75;;
57824;SDS011;43912;44.188;21.094;2022-08-01T01:33:14;7.80;;;3.70;;
57824;SDS011;43912;44.188;21.094;2022-08-01T01:35:42;7.90;;;3.20;;
57824;SDS011;43912;44.188;21.094;2022-08-01T01:38:13;9.63;;;3.30;;
57824;SDS011;43912;44.188;21.094;2022-08-01T01:40:40;8.32;;;3.28;;
57824;SDS011;43912;44.188;21.094;2022-08-01T01:43:09;7.43;;;3.17;;
57824;SDS011;43912;44.188;21.094;2022-08-01T01:45:35;5.85;;;2.63;;
57824;SDS011;43912;44.188;21.094;2022-08-01T01:48:02;7.13;;;3.05;;
57824;SDS011;43912;44.188;21.094;2022-08-01T01:50:29;8.23;;;3.20;;
57824;SDS011;43912;44.188;21.094;2022-08-01T01:52:55;8.73;;;3.15;;
57824;SDS011;43912;44.188;21.094;2022-08-01T01:55:22;7.22;;;2.70;;
57824;SDS011;43912;44.188;21.094;2022-08-01T01:57:49;6.72;;;3.05;;
57824;SDS011;43912;44.188;21.094;2022-08-01T02:00:16;9.57;;;3.40;;
57824;SDS011;43912;44.188;21.094;2022-08-01T02:02:42;7.32;;;3.08;;
57824;SDS011;43912;44.188;21.094;2022-08-01T02:05:09;7.75;;;2.90;;
57824;SDS011;43912;44.188;21.094;2022-08-01T02:07:36;8.45;;;3.00;;
57824;SDS011;43912;44.188;21.094;2022-08-01T02:10:03;6.60;;;3.00;;
57824;SDS011;43912;44.188;21.094;2022-08-01T02:12:29;6.88;;;2.80;;
57824;SDS011;43912;44.188;21.094;2022-08-01T02:14:56;7.22;;;3.03;;
57824;SDS011;43912;44.188;21.094;2022-08-01T02:17:23;8.13;;;3.08;;
57824;SDS011;43912;44.188;21.094;2022-08-01T02:19:51;6.80;;;2.78;;
57824;SDS011;43912;44.188;21.094;2022-08-01T02:22:19;7.40;;;3.00;;
57824;SDS011;43912;44.188;21.094;2022-08-01T02:24:53;6.85;;;3.30;;
57824;SDS011;43912;44.188;21.094;2022-08-01T02:27:25;8.18;;;3.35;;
57824;SDS011;43912;44.188;21.094;2022-08-01T02:29:58;7.85;;;3.63;;
57824;SDS011;43912;44.188;21.094;2022-08-01T02:32:31;8.30;;;3.38;;
57824;SDS011;43912;44.188;21.094;2022-08-01T02:35:00;6.63;;;3.47;;
57824;SDS011;43912;44.188;21.094;2022-08-01T02:37:28;8.95;;;3.33;;
57824;SDS011;43912;44.188;21.094;2022-08-01T02:39:56;8.63;;;3.83;;
57824;SDS011;43912;44.188;21.094;2022-08-01T02:42:25;8.23;;;3.92;;
57824;SDS011;43912;44.188;21.094;2022-08-01T02:44:52;9.90;;;4.20;;
57824;SDS011;43912;44.188;21.094;2022-08-01T02:47:19;13.65;;;4.53;;
57824;SDS011;43912;44.188;21.094;2022-08-01T02:49:46;9.02;;;4.50;;
57824;SDS011;43912;44.188;21.094;2022-08-01T02:52:14;10.10;;;4.20;;
57824;SDS011;43912;44.188;21.094;2022-08-01T02:54:41;10.20;;;4.20;;
57824;SDS011;43912;44.188;21.094;2022-08-01T02:57:08;8.95;;;4.10;;
57824;SDS011;43912;44.188;21.094;2022-08-01T02:59:36;8.98;;;3.60;;
57824;SDS011;43912;44.188;21.094;2022-08-01T03:02:03;7.97;;;3.50;;
57824;SDS011;43912;44.188;21.094;2022-08-01T03:04:30;9.32;;;3.80;;
57824;SDS011;43912;44.188;21.094;2022-08-01T03:06:57;10.93;;;3.30;;
57824;SDS011;43912;44.188;21.094;2022-08-01T03:09:24;8.20;;;3.60;;
57824;SDS011;43912;44.188;21.094;2022-08-01T03:11:51;7.97;;;3.33;;
57824;SDS011;43912;44.188;21.094;2022-08-01T03:14:19;9.18;;;3.00;;
57824;SDS011;43912;44.188;21.094;2022-08-01T03:16:46;7.78;;;3.33;;
57824;SDS011;43912;44.188;21.094;2022-08-01T03:19:13;8.15;;;2.85;;
57824;SDS011;43912;44.188;21.094;2022-08-01T03:21:40;8.25;;;3.42;;
57824;SDS011;43912;44.188;21.094;2022-08-01T03:24:07;8.40;;;2.70;;
57824;SDS011;43912;44.188;21.094;2022-08-01T03:26:34;8.00;;;3.30;;
57824;SDS011;43912;44.188;21.094;2022-08-01T03:29:04;6.45;;;2.83;;
57824;SDS011;43912;44.188;21.094;2022-08-01T03:31:35;6.90;;;2.67;;
57824;SDS011;43912;44.188;21.094;2022-08-01T03:34:01;8.48;;;3.42;;
57824;SDS011;43912;44.188;21.094;2022-08-01T03:36:28;7.95;;;3.28;;
57824;SDS011;43912;44.188;21.094;2022-08-01T03:38:56;9.00;;;3.80;;
57824;SDS011;43912;44.188;21.094;2022-08-01T03:41:23;9.75;;;3.55;;
57824;SDS011;43912;44.188;21.094;2022-08-01T03:43:52;6.82;;;3.50;;
57824;SDS011;43912;44.188;21.094;2022-08-01T03:46:22;12.45;;;4.00;;
57824;SDS011;43912;44.188;21.094;2022-08-01T03:48:53;9.10;;;3.65;;
57824;SDS011;43912;44.188;21.094;2022-08-01T03:51:20;10.05;;;3.78;;
57824;SDS011;43912;44.188;21.094;2022-08-01T03:53:47;11.55;;;3.08;;
57824;SDS011;43912;44.188;21.094;2022-08-01T03:56:16;7.63;;;3.38;;
57824;SDS011;43912;44.188;21.094;2022-08-01T03:58:44;7.07;;;3.20;;
57824;SDS011;43912;44.188;21.094;2022-08-01T04:01:10;6.97;;;3.20;;
57824;SDS011;43912;44.188;21.094;2022-08-01T04:03:37;8.60;;;3.15;;
57824;SDS011;43912;44.188;21.094;2022-08-01T04:06:04;8.40;;;3.38;;
57824;SDS011;43912;44.188;21.094;2022-08-01T04:08:39;8.65;;;3.42;;
57824;SDS011;43912;44.188;21.094;2022-08-01T04:11:07;8.00;;;3.95;;
57824;SDS011;43912;44.188;21.094;2022-08-01T04:13:33;11.65;;;6.18;;
57824;SDS011;43912;44.188;21.094;2022-08-01T04:16:00;11.65;;;7.13;;
57824;SDS011;43912;44.188;21.094;2022-08-01T04:18:26;10.25;;;6.07;;
57824;SDS011;43912;44.188;21.094;2022-08-01T04:20:52;13.35;;;5.13;;
57824;SDS011;43912;44.188;21.094;2022-08-01T04:23:19;13.88;;;4.95;;
57824;SDS011;43912;44.188;21.094;2022-08-01T04:25:46;9.75;;;4.72;;
57824;SDS011;43912;44.188;21.094;2022-08-01T04:28:14;10.57;;;3.97;;
57824;SDS011;43912;44.188;21.094;2022-08-01T04:30:42;10.93;;;4.50;;
57824;SDS011;43912;44.188;21.094;2022-08-01T04:33:08;13.15;;;4.28;;
57824;SDS011;43912;44.188;21.094;2022-08-01T04:35:35;10.38;;;4.63;;
57824;SDS011;43912;44.188;21.094;2022-08-01T04:38:03;13.27;;;4.55;;
57824;SDS011;43912;44.188;21.094;2022-08-01T04:40:30;8.55;;;4.13;;
57824;SDS011;43912;44.188;21.094;2022-08-01T04:42:56;10.88;;;5.68;;
57824;SDS011;43912;44.188;21.094;2022-08-01T04:45:23;10.35;;;5.32;;
57824;SDS011;43912;44.188;21.094;2022-08-01T04:47:49;10.73;;;4.97;;
57824;SDS011;43912;44.188;21.094;2022-08-01T04:50:16;8.82;;;4.63;;
57824;SDS011;43912;44.188;21.094;2022-08-01T04:52:42;7.40;;;4.00;;
57824;SDS011;43912;44.188;21.094;2022-08-01T04:55:09;10.45;;;4.50;;
57824;SDS011;43912;44.188;21.094;2022-08-01T04:57:36;9.82;;;4.80;;
57824;SDS011;43912;44.188;21.094;2022-08-01T05:00:03;8.18;;;4.25;;
57824;SDS011;43912;44.188;21.094;2022-08-01T05:02:29;8.77;;;4.82;;
57824;SDS011;43912;44.188;21.094;2022-08-01T05:04:55;18.13;;;7.35;;
57824;SDS011;43912;44.188;21.094;2022-08-01T05:07:21;10.82;;;6.00;;
57824;SDS011;43912;44.188;21.094;2022-08-01T05:09:48;9.48;;;5.25;;
57824;SDS011;43912;44.188;21.094;2022-08-01T05:12:14;12.75;;;5.00;;
57824;SDS011;43912;44.188;21.094;2022-08-01T05:14:40;7.70;;;4.97;;
57824;SDS011;43912;44.188;21.094;2022-08-01T05:17:07;11.85;;;4.75;;
57824;SDS011;43912;44.188;21.094;2022-08-01T05:19:34;9.45;;;5.25;;
57824;SDS011;43912;44.188;21.094;2022-08-01T05:22:00;9.70;;;5.10;;
57824;SDS011;43912;44.188;21.094;2022-08-01T05:24:29;8.82;;;5.50;;
57824;SDS011;43912;44.188;21.094;2022-08-01T05:26:56;9.98;;;5.43;;
57824;SDS011;43912;44.188;21.094;2022-08-01T05:29:22;7.15;;;4.90;;
57824;SDS011;43912;44.188;21.094;2022-08-01T05:31:49;9.77;;;5.45;;
57824;SDS011;43912;44.188;21.094;2022-08-01T05:34:16;7.97;;;5.10;;
57824;SDS011;43912;44.188;21.094;2022-08-01T05:36:42;8.18;;;4.72;;
57824;SDS011;43912;44.188;21.094;2022-08-01T05:39:09;11.32;;;5.20;;
57824;SDS011;43912;44.188;21.094;2022-08-01T05:41:35;9.13;;;5.50;;
57824;SDS011;43912;44.188;21.094;2022-08-01T05:44:02;9.85;;;5.80;;
57824;SDS011;43912;44.188;21.094;2022-08-01T05:46:28;7.60;;;5.50;;
57824;SDS011;43912;44.188;21.094;2022-08-01T05:48:56;9.43;;;5.75;;
57824;SDS011;43912;44.188;21.094;2022-08-01T05:51:22;12.80;;;6.10;;
57824;SDS011;43912;44.188;21.094;2022-08-01T05:53:48;11.13;;;5.78;;
57824;SDS011;43912;44.188;21.094;2022-08-01T05:56:14;14.02;;;5.85;;
57824;SDS011;43912;44.188;21.094;2022-08-01T05:58:40;9.23;;;5.47;;
57824;SDS011;43912;44.188;21.094;2022-08-01T06:01:06;9.73;;;6.90;;
57824;SDS011;43912;44.188;21.094;2022-08-01T06:03:32;14.43;;;8.20;;
57824;SDS011;43912;44.188;21.094;2022-08-01T06:05:59;16.20;;;8.50;;
57824;SDS011;43912;44.188;21.094;2022-08-01T06:08:25;14.98;;;9.00;;
57824;SDS011;43912;44.188;21.094;2022-08-01T06:10:51;12.70;;;6.68;;
57824;SDS011;43912;44.188;21.094;2022-08-01T06:13:17;11.98;;;6.60;;
57824;SDS011;43912;44.188;21.094;2022-08-01T06:15:46;12.55;;;6.22;;
57824;SDS011;43912;44.188;21.094;2022-08-01T06:18:13;9.82;;;5.70;;
57824;SDS011;43912;44.188;21.094;2022-08-01T06:20:40;8.30;;;5.18;;
57824;SDS011;43912;44.188;21.094;2022-08-01T06:23:06;10.35;;;4.97;;
57824;SDS011;43912;44.188;21.094;2022-08-01T06:25:32;8.50;;;4.75;;
57824;SDS011;43912;44.188;21.094;2022-08-01T06:27:58;10.38;;;5.03;;
57824;SDS011;43912;44.188;21.094;2022-08-01T06:30:24;8.57;;;4.28;;
57824;SDS011;43912;44.188;21.094;2022-08-01T06:32:50;10.95;;;4.53;;
57824;SDS011;43912;44.188;21.094;2022-08-01T06:35:17;11.50;;;4.30;;
57824;SDS011;43912;44.188;21.094;2022-08-01T06:37:43;10.70;;;4.15;;
57824;SDS011;43912;44.188;21.094;2022-08-01T06:40:13;9.30;;;4.05;;
57824;SDS011;43912;44.188;21.094;2022-08-01T06:42:40;10.02;;;4.03;;
57824;SDS011;43912;44.188;21.094;2022-08-01T06:45:07;12.60;;;5.28;;
57824;SDS011;43912;44.188;21.094;2022-08-01T06:47:34;8.90;;;4.38;;
57824;SDS011;43912;44.188;21.094;2022-08-01T06:50:00;9.40;;;4.10;;
57824;SDS011;43912;44.188;21.094;2022-08-01T06:52:27;7.65;;;3.15;;
57824;SDS011;43912;44.188;21.094;2022-08-01T06:54:53;9.52;;;3.90;;
57824;SDS011;43912;44.188;21.094;2022-08-01T06:57:19;7.07;;;3.05;;
57824;SDS011;43912;44.188;21.094;2022-08-01T06:59:45;6.93;;;3.15;;
57824;SDS011;43912;44.188;21.094;2022-08-01T07:02:11;5.57;;;2.50;;
57824;SDS011;43912;44.188;21.094;2022-08-01T07:04:37;5.53;;;2.70;;
57824;SDS011;43912;44.188;21.094;2022-08-01T07:07:03;6.00;;;2.40;;
57824;SDS011;43912;44.188;21.094;2022-08-01T07:09:29;5.63;;;2.42;;
57824;SDS011;43912;44.188;21.094;2022-08-01T07:11:55;7.45;;;2.58;;
57824;SDS011;43912;44.188;21.094;2022-08-01T07:14:22;5.97;;;2.55;;
57824;SDS011;43912;44.188;21.094;2022-08-01T07:16:48;6.45;;;2.88;;
57824;SDS011;43912;44.188;21.094;2022-08-01T07:19:14;7.25;;;2.63;;
57824;SDS011;43912;44.188;21.094;2022-08-01T07:21:41;6.93;;;2.50;;
57824;SDS011;43912;44.188;21.094;2022-08-01T07:24:08;7.35;;;2.55;;
57824;SDS011;43912;44.188;21.094;2022-08-01T07:26:34;6.68;;;2.60;;
57824;SDS011;43912;44.188;21.094;2022-08-01T07:29:00;5.40;;;2.53;;
57824;SDS011;43912;44.188;21.094;2022-08-01T07:31:27;5.55;;;2.55;;
57824;SDS011;43912;44.188;21.094;2022-08-01T07:33:53;6.10;;;2.30;;
57824;SDS011;43912;44.188;21.094;2022-08-01T07:36:19;6.90;;;2.80;;
57824;SDS011;43912;44.188;21.094;2022-08-01T07:38:46;6.47;;;2.22;;
57824;SDS011;43912;44.188;21.094;2022-08-01T07:41:12;6.28;;;2.40;;
57824;SDS011;43912;44.188;21.094;2022-08-01T07:43:39;5.70;;;2.45;;
57824;SDS011;43912;44.188;21.094;2022-08-01T07:46:05;5.57;;;2.20;;
57824;SDS011;43912;44.188;21.094;2022-08-01T07:48:32;8.00;;;2.58;;
57824;SDS011;43912;44.188;21.094;2022-08-01T07:50:58;6.45;;;2.67;;
57824;SDS011;43912;44.188;21.094;2022-08-01T07:53:24;5.93;;;2.75;;
57824;SDS011;43912;44.188;21.094;2022-08-01T07:55:50;7.45;;;2.90;;
57824;SDS011;43912;44.188;21.094;2022-08-01T07:58:16;9.88;;;3.00;;
57824;SDS011;43912;44.188;21.094;2022-08-01T08:00:43;8.02;;;2.75;;
57824;SDS011;43912;44.188;21.094;2022-08-01T08:03:09;7.25;;;2.80;;
57824;SDS011;43912;44.188;21.094;2022-08-01T08:05:35;5.90;;;2.90;;
57824;SDS011;43912;44.188;21.094;2022-08-01T08:08:04;7.18;;;2.90;;
57824;SDS011;43912;44.188;21.094;2022-08-01T08:10:30;5.53;;;2.13;;
57824;SDS011;43912;44.188;21.094;2022-08-01T08:12:56;7.72;;;2.70;;
57824;SDS011;43912;44.188;21.094;2022-08-01T08:15:22;5.30;;;2.33;;
57824;SDS011;43912;44.188;21.094;2022-08-01T08:17:48;7.68;;;2.53;;
57824;SDS011;43912;44.188;21.094;2022-08-01T08:20:15;6.40;;;2.67;;
57824;SDS011;43912;44.188;21.094;2022-08-01T08:22:41;7.05;;;3.08;;
57824;SDS011;43912;44.188;21.094;2022-08-01T08:25:07;7.15;;;2.60;;
57824;SDS011;43912;44.188;21.094;2022-08-01T08:27:34;8.98;;;2.42;;
57824;SDS011;43912;44.188;21.094;2022-08-01T08:30:00;7.28;;;2.40;;
57824;SDS011;43912;44.188;21.094;2022-08-01T08:32:26;7.47;;;2.63;;
57824;SDS011;43912;44.188;21.094;2022-08-01T08:34:52;5.72;;;2.40;;
57824;SDS011;43912;44.188;21.094;2022-08-01T08:37:19;6.30;;;2.90;;
57824;SDS011;43912;44.188;21.094;2022-08-01T08:39:45;6.20;;;2.80;;
57824;SDS011;43912;44.188;21.094;2022-08-01T08:42:14;8.63;;;2.60;;
57824;SDS011;43912;44.188;21.094;2022-08-01T08:44:40;6.40;;;2.78;;
57824;SDS011;43912;44.188;21.094;2022-08-01T08:47:07;6.47;;;2.40;;
57824;SDS011;43912;44.188;21.094;2022-08-01T08:49:33;6.13;;;2.40;;
57824;SDS011;43912;44.188;21.094;2022-08-01T08:52:00;6.22;;;2.80;;
57824;SDS011;43912;44.188;21.094;2022-08-01T08:54:26;6.57;;;2.42;;
57824;SDS011;43912;44.188;21.094;2022-08-01T08:56:53;6.32;;;2.58;;
57824;SDS011;43912;44.188;21.094;2022-08-01T08:59:19;8.13;;;3.22;;
57824;SDS011;43912;44.188;21.094;2022-08-01T09:01:46;6.10;;;2.60;;
57824;SDS011;43912;44.188;21.094;2022-08-01T09:04:12;5.63;;;2.47;;
57824;SDS011;43912;44.188;21.094;2022-08-01T09:06:39;5.50;;;2.45;;
57824;SDS011;43912;44.188;21.094;2022-08-01T09:09:06;6.65;;;2.58;;
57824;SDS011;43912;44.188;21.094;2022-08-01T09:11:32;5.95;;;2.50;;
57824;SDS011;43912;44.188;21.094;2022-08-01T09:14:12;6.95;;;2.40;;
57824;SDS011;43912;44.188;21.094;2022-08-01T09:16:42;5.90;;;2.55;;
57824;SDS011;43912;44.188;21.094;2022-08-01T09:19:12;8.30;;;2.55;;
57824;SDS011;43912;44.188;21.094;2022-08-01T09:21:39;6.63;;;2.70;;
57824;SDS011;43912;44.188;21.094;2022-08-01T09:24:13;7.53;;;2.60;;
57824;SDS011;43912;44.188;21.094;2022-08-01T09:26:39;7.18;;;2.70;;
57824;SDS011;43912;44.188;21.094;2022-08-01T09:29:06;7.78;;;2.40;;
57824;SDS011;43912;44.188;21.094;2022-08-01T09:31:40;7.07;;;2.28;;
57824;SDS011;43912;44.188;21.094;2022-08-01T09:34:07;6.55;;;2.38;;
57824;SDS011;43912;44.188;21.094;2022-08-01T09:36:48;6.75;;;2.40;;
57824;SDS011;43912;44.188;21.094;2022-08-01T09:39:22;6.38;;;2.20;;
57824;SDS011;43912;44.188;21.094;2022-08-01T09:41:48;5.93;;;2.10;;
57824;SDS011;43912;44.188;21.094;2022-08-01T09:44:16;7.15;;;2.00;;
57824;SDS011;43912;44.188;21.094;2022-08-01T09:46:52;6.65;;;2.13;;
57824;SDS011;43912;44.188;21.094;2022-08-01T09:49:29;5.18;;;2.00;;
57824;SDS011;43912;44.188;21.094;2022-08-01T09:51:55;5.82;;;2.08;;
57824;SDS011;43912;44.188;21.094;2022-08-01T09:54:40;6.72;;;2.00;;
57824;SDS011;43912;44.188;21.094;2022-08-01T09:57:14;9.38;;;2.38;;
57824;SDS011;43912;44.188;21.094;2022-08-01T09:59:41;7.85;;;2.17;;
57824;SDS011;43912;44.188;21.094;2022-08-01T10:02:09;6.97;;;2.20;;
57824;SDS011;43912;44.188;21.094;2022-08-01T10:04:36;5.85;;;2.33;;
57824;SDS011;43912;44.188;21.094;2022-08-01T10:07:06;5.95;;;2.25;;
57824;SDS011;43912;44.188;21.094;2022-08-01T10:09:33;7.47;;;2.00;;
57824;SDS011;43912;44.188;21.094;2022-08-01T10:12:00;6.38;;;2.22;;
57824;SDS011;43912;44.188;21.094;2022-08-01T10:14:27;7.00;;;2.33;;
57824;SDS011;43912;44.188;21.094;2022-08-01T10:16:55;7.95;;;2.38;;
57824;SDS011;43912;44.188;21.094;2022-08-01T10:19:23;8.20;;;2.10;;
57824;SDS011;43912;44.188;21.094;2022-08-01T10:21:50;7.78;;;2.35;;
57824;SDS011;43912;44.188;21.094;2022-08-01T10:24:22;9.40;;;2.45;;
57824;SDS011;43912;44.188;21.094;2022-08-01T10:26:48;7.93;;;2.20;;
57824;SDS011;43912;44.188;21.094;2022-08-01T10:29:16;6.40;;;2.40;;
57824;SDS011;43912;44.188;21.094;2022-08-01T10:31:44;9.48;;;2.40;;
57824;SDS011;43912;44.188;21.094;2022-08-01T10:34:10;8.48;;;3.00;;
57824;SDS011;43912;44.188;21.094;2022-08-01T10:36:37;6.93;;;2.40;;
57824;SDS011;43912;44.188;21.094;2022-08-01T10:39:06;6.95;;;2.33;;
57824;SDS011;43912;44.188;21.094;2022-08-01T10:41:33;5.80;;;2.30;;
57824;SDS011;43912;44.188;21.094;2022-08-01T10:44:00;7.80;;;2.50;;
57824;SDS011;43912;44.188;21.094;2022-08-01T10:46:28;5.88;;;2.30;;
57824;SDS011;43912;44.188;21.094;2022-08-01T10:49:10;6.45;;;2.35;;
57824;SDS011;43912;44.188;21.094;2022-08-01T10:51:37;6.97;;;1.98;;
57824;SDS011;43912;44.188;21.094;2022-08-01T10:54:07;7.88;;;2.65;;
57824;SDS011;43912;44.188;21.094;2022-08-01T10:56:40;6.90;;;2.50;;
57824;SDS011;43912;44.188;21.094;2022-08-01T10:59:08;7.80;;;2.70;;
57824;SDS011;43912;44.188;21.094;2022-08-01T11:01:34;5.70;;;2.20;;
57824;SDS011;43912;44.188;21.094;2022-08-01T11:09:03;8.52;;;2.17;;
57824;SDS011;43912;44.188;21.094;2022-08-01T11:11:30;9.00;;;2.47;;
57824;SDS011;43912;44.188;21.094;2022-08-01T11:16:28;7.10;;;2.40;;
57824;SDS011;43912;44.188;21.094;2022-08-01T11:18:55;5.97;;;2.35;;
57824;SDS011;43912;44.188;21.094;2022-08-01T11:21:21;5.70;;;2.30;;
57824;SDS011;43912;44.188;21.094;2022-08-01T11:23:51;6.22;;;2.17;;
57824;SDS011;43912;44.188;21.094;2022-08-01T11:26:18;6.85;;;1.92;;
57824;SDS011;43912;44.188;21.094;2022-08-01T11:28:45;8.43;;;2.60;;
57824;SDS011;43912;44.188;21.094;2022-08-01T11:38:42;6.35;;;2.55;;
57824;SDS011;43912;44.188;21.094;2022-08-01T11:41:12;6.25;;;2.65;;
57824;SDS011;43912;44.188;21.094;2022-08-01T11:46:44;6.00;;;2.30;;
57824;SDS011;43912;44.188;21.094;2022-08-01T11:49:25;6.97;;;2.00;;
57824;SDS011;43912;44.188;21.094;2022-08-01T11:52:10;5.78;;;2.00;;
57824;SDS011;43912;44.188;21.094;2022-08-01T11:54:38;6.85;;;2.28;;
57824;SDS011;43912;44.188;21.094;2022-08-01T11:57:05;7.00;;;2.78;;
57824;SDS011;43912;44.188;21.094;2022-08-01T11:59:35;6.90;;;2.22;;
57824;SDS011;43912;44.188;21.094;2022-08-01T12:02:02;7.65;;;2.28;;
57824;SDS011;43912;44.188;21.094;2022-08-01T12:04:48;8.77;;;2.35;;
57824;SDS011;43912;44.188;21.094;2022-08-01T12:07:15;6.70;;;2.20;;
57824;SDS011;43912;44.188;21.094;2022-08-01T12:09:42;8.05;;;2.30;;
57824;SDS011;43912;44.188;21.094;2022-08-01T12:12:08;8.13;;;2.45;;
57824;SDS011;43912;44.188;21.094;2022-08-01T12:14:34;6.32;;;2.17;;
57824;SDS011;43912;44.188;21.094;2022-08-01T12:17:00;6.35;;;2.30;;
57824;SDS011;43912;44.188;21.094;2022-08-01T12:19:27;8.27;;;2.50;;
57824;SDS011;43912;44.188;21.094;2022-08-01T12:22:06;9.90;;;2.50;;
57824;SDS011;43912;44.188;21.094;2022-08-01T12:24:33;5.93;;;2.50;;
57824;SDS011;43912;44.188;21.094;2022-08-01T12:26:59;7.85;;;2.40;;
57824;SDS011;43912;44.188;21.094;2022-08-01T12:29:41;9.73;;;2.60;;
57824;SDS011;43912;44.188;21.094;2022-08-01T12:32:30;7.15;;;2.65;;
57824;SDS011;43912;44.188;21.094;2022-08-01T12:35:00;8.18;;;2.40;;
57824;SDS011;43912;44.188;21.094;2022-08-01T12:37:26;6.25;;;2.58;;
57824;SDS011;43912;44.188;21.094;2022-08-01T12:39:52;8.10;;;2.50;;
57824;SDS011;43912;44.188;21.094;2022-08-01T12:42:19;5.85;;;2.58;;
57824;SDS011;43912;44.188;21.094;2022-08-01T12:44:45;12.77;;;2.60;;
57824;SDS011;43912;44.188;21.094;2022-08-01T12:47:14;9.23;;;2.78;;
57824;SDS011;43912;44.188;21.094;2022-08-01T12:49:42;6.78;;;2.50;;
57824;SDS011;43912;44.188;21.094;2022-08-01T12:52:09;7.57;;;2.50;;
57824;SDS011;43912;44.188;21.094;2022-08-01T12:57:23;5.72;;;2.33;;
57824;SDS011;43912;44.188;21.094;2022-08-01T12:59:52;6.93;;;2.50;;
57824;SDS011;43912;44.188;21.094;2022-08-01T13:02:18;7.03;;;2.40;;
57824;SDS011;43912;44.188;21.094;2022-08-01T13:04:50;10.77;;;2.70;;
57824;SDS011;43912;44.188;21.094;2022-08-01T13:07:17;6.50;;;2.55;;
57824;SDS011;43912;44.188;21.094;2022-08-01T13:09:52;6.32;;;2.70;;
57824;SDS011;43912;44.188;21.094;2022-08-01T13:12:18;9.65;;;2.50;;
57824;SDS011;43912;44.188;21.094;2022-08-01T13:14:44;6.20;;;2.33;;
57824;SDS011;43912;44.188;21.094;2022-08-01T13:17:10;7.35;;;2.35;;
57824;SDS011;43912;44.188;21.094;2022-08-01T13:19:43;10.75;;;2.53;;
57824;SDS011;43912;44.188;21.094;2022-08-01T13:22:09;10.55;;;2.63;;
57824;SDS011;43912;44.188;21.094;2022-08-01T13:24:35;6.32;;;2.75;;
57824;SDS011;43912;44.188;21.094;2022-08-01T13:27:02;8.63;;;2.38;;
57824;SDS011;43912;44.188;21.094;2022-08-01T13:29:39;7.53;;;2.70;;
57824;SDS011;43912;44.188;21.094;2022-08-01T13:32:13;6.55;;;2.25;;
57824;SDS011;43912;44.188;21.094;2022-08-01T13:34:39;5.57;;;2.28;;
57824;SDS011;43912;44.188;21.094;2022-08-01T13:37:05;11.43;;;2.50;;
57824;SDS011;43912;44.188;21.094;2022-08-01T13:39:31;7.05;;;2.40;;
57824;SDS011;43912;44.188;21.094;2022-08-01T13:42:09;6.07;;;2.25;;
57824;SDS011;43912;44.188;21.094;2022-08-01T13:44:36;8.00;;;2.45;;
57824;SDS011;43912;44.188;21.094;2022-08-01T13:47:05;7.55;;;2.45;;
57824;SDS011;43912;44.188;21.094;2022-08-01T13:49:31;6.18;;;2.33;;
57824;SDS011;43912;44.188;21.094;2022-08-01T13:51:58;8.23;;;2.30;;
57824;SDS011;43912;44.188;21.094;2022-08-01T13:54:24;7.00;;;2.10;;
57824;SDS011;43912;44.188;21.094;2022-08-01T13:56:50;9.90;;;2.50;;
57824;SDS011;43912;44.188;21.094;2022-08-01T13:59:17;6.00;;;2.42;;
57824;SDS011;43912;44.188;21.094;2022-08-01T14:01:43;7.25;;;2.30;;
57824;SDS011;43912;44.188;21.094;2022-08-01T14:04:09;7.90;;;2.55;;
57824;SDS011;43912;44.188;21.094;2022-08-01T14:06:35;5.80;;;2.40;;
57824;SDS011;43912;44.188;21.094;2022-08-01T14:09:02;7.60;;;2.20;;
57824;SDS011;43912;44.188;21.094;2022-08-01T14:11:29;9.27;;;2.28;;
57824;SDS011;43912;44.188;21.094;2022-08-01T14:13:55;8.05;;;2.83;;
57824;SDS011;43912;44.188;21.094;2022-08-01T14:16:21;9.30;;;2.80;;
57824;SDS011;43912;44.188;21.094;2022-08-01T14:18:47;7.90;;;2.70;;
57824;SDS011;43912;44.188;21.094;2022-08-01T14:21:14;8.52;;;2.65;;
57824;SDS011;43912;44.188;21.094;2022-08-01T14:23:40;6.38;;;2.60;;
57824;SDS011;43912;44.188;21.094;2022-08-01T14:26:08;9.43;;;2.92;;
57824;SDS011;43912;44.188;21.094;2022-08-01T14:28:34;10.38;;;2.70;;
57824;SDS011;43912;44.188;21.094;2022-08-01T14:31:00;7.15;;;2.58;;
57824;SDS011;43912;44.188;21.094;2022-08-01T14:33:26;6.78;;;2.67;;
57824;SDS011;43912;44.188;21.094;2022-08-01T14:35:52;7.35;;;2.67;;
57824;SDS011;43912;44.188;21.094;2022-08-01T14:38:18;9.05;;;2.40;;
57824;SDS011;43912;44.188;21.094;2022-08-01T14:40:44;6.45;;;2.58;;
57824;SDS011;43912;44.188;21.094;2022-08-01T14:43:18;8.30;;;2.63;;
57824;SDS011;43912;44.188;21.094;2022-08-01T14:45:45;7.50;;;2.60;;
57824;SDS011;43912;44.188;21.094;2022-08-01T14:48:14;6.72;;;2.38;;
57824;SDS011;43912;44.188;21.094;2022-08-01T14:50:40;9.23;;;2.60;;
57824;SDS011;43912;44.188;21.094;2022-08-01T14:53:07;7.50;;;2.08;;
57824;SDS011;43912;44.188;21.094;2022-08-01T14:55:33;9.38;;;2.20;;
57824;SDS011;43912;44.188;21.094;2022-08-01T14:57:59;7.50;;;2.38;;
57824;SDS011;43912;44.188;21.094;2022-08-01T15:00:25;8.30;;;2.30;;
57824;SDS011;43912;44.188;21.094;2022-08-01T15:02:51;6.63;;;2.05;;
57824;SDS011;43912;44.188;21.094;2022-08-01T15:05:17;7.45;;;2.22;;
57824;SDS011;43912;44.188;21.094;2022-08-01T15:07:43;9.50;;;3.95;;